createdAt,value
2019-06-26T00:01:02.856Z,60.94
2019-06-26T00:02:12.987Z,61.32
2019-06-26T00:03:23.105Z,61.68
2019-06-26T00:04:33.253Z,61.39
2019-06-26T00:05:43.387Z,61.78
2019-06-26T00:06:53.588Z,61.81
2019-06-26T00:08:03.499Z,61.49
2019-06-26T00:09:13.615Z,61.58
2019-06-26T00:10:23.791Z,62.07
2019-06-26T00:11:34.168Z,61.98
2019-06-26T00:12:44.295Z,62.46
2019-06-26T00:13:53.955Z,62.46
2019-06-26T00:15:04.068Z,62.16
2019-06-26T00:16:14.215Z,62.36
2019-06-26T00:17:24.348Z,62.36
2019-06-26T00:18:34.577Z,62.55
2019-06-26T00:19:44.750Z,62.36
2019-06-26T00:20:54.901Z,62.46
2019-06-26T00:22:05.042Z,62.65
2019-06-26T00:23:15.180Z,63.1
2019-06-26T00:24:25.296Z,62.85
2019-06-26T00:25:35.434Z,63.1
2019-06-26T00:26:45.568Z,62.82
2019-06-26T00:27:55.686Z,63.3
2019-06-26T00:29:06.029Z,63.23
2019-06-26T00:30:16.180Z,63.1
2019-06-26T00:31:26.328Z,63.01
2019-06-26T00:32:36.511Z,63.01
2019-06-26T00:33:46.641Z,63.3
2019-06-26T00:34:56.778Z,63.01
2019-06-26T00:36:06.919Z,63.2
2019-06-26T00:37:17.079Z,63.59
2019-06-26T00:38:27.237Z,63.98
2019-06-26T00:39:37.342Z,63.4
2019-06-26T00:40:47.518Z,63.1
2019-06-26T00:41:57.728Z,63.4
2019-06-26T00:43:07.880Z,63.1
2019-06-26T00:44:18.035Z,62.72
2019-06-26T00:45:28.180Z,62.33
2019-06-26T00:46:38.301Z,62.46
2019-06-26T00:47:48.645Z,62.62
2019-06-26T00:48:58.782Z,62.26
2019-06-26T00:50:08.928Z,62.04
2019-06-26T00:51:19.071Z,62.04
2019-06-26T00:52:29.219Z,62.82
2019-06-26T00:53:39.367Z,63.2
2019-06-26T00:54:49.141Z,63.04
2019-06-26T00:55:59.324Z,63.49
2019-06-26T00:57:09.453Z,63.59
2019-06-26T00:58:19.589Z,63.3
2019-06-26T00:59:29.717Z,63.4
2019-06-26T01:00:39.864Z,63.49
2019-06-26T01:01:50.087Z,64.17
2019-06-26T01:03:00.211Z,64.17
2019-06-26T01:04:10.346Z,63.98
2019-06-26T01:05:20.137Z,63.88
2019-06-26T01:06:30.319Z,63.69
2019-06-26T01:07:40.494Z,63.98
2019-06-26T01:08:50.618Z,63.98
2019-06-26T01:10:00.760Z,64.56
2019-06-26T01:11:10.915Z,64.47
2019-06-26T01:12:24.562Z,64.75
2019-06-26T01:13:34.683Z,64.37
2019-06-26T01:15:00.353Z,64.53
2019-06-26T01:16:10.517Z,64.82
2019-06-26T01:17:20.647Z,64.72
2019-06-26T01:18:30.751Z,65.01
2019-06-26T01:19:40.942Z,65.11
2019-06-26T01:20:51.143Z,64.82
2019-06-26T01:22:01.282Z,64.43
2019-06-26T01:23:11.136Z,65.01
2019-06-26T01:24:21.274Z,65.5
2019-06-26T01:25:32.586Z,65.01
2019-06-26T01:26:42.751Z,65.2
2019-06-26T01:27:52.874Z,65.59
2019-06-26T01:29:02.986Z,65.5
2019-06-26T01:30:13.102Z,65.69
2019-06-26T01:31:23.218Z,65.79
2019-06-26T01:32:33.329Z,66.27
2019-06-26T01:33:43.464Z,65.89
2019-06-26T01:34:53.587Z,65.79
2019-06-26T01:36:03.766Z,66.17
2019-06-26T01:37:13.886Z,66.47
2019-06-26T01:38:24.007Z,66.17
2019-06-26T01:39:34.196Z,66.56
2019-06-26T01:40:44.362Z,66.56
2019-06-26T01:41:54.468Z,66.47
2019-06-26T01:43:04.689Z,66.27
2019-06-26T01:44:17.949Z,66.43
2019-06-26T01:45:27.849Z,66.17
2019-06-26T01:46:37.968Z,66.72
2019-06-26T01:47:48.106Z,66.63
2019-06-26T01:48:58.217Z,66.75
2019-06-26T01:50:08.331Z,66.53
2019-06-26T01:51:18.471Z,66.56
2019-06-26T01:52:28.585Z,66.63
2019-06-26T01:53:38.473Z,66.75
2019-06-26T01:54:48.593Z,66.56
2019-06-26T01:55:58.743Z,66.05
2019-06-26T01:57:08.929Z,65.85
2019-06-26T01:58:19.043Z,66.05
2019-06-26T01:59:29.179Z,66.14
2019-06-26T02:00:39.103Z,65.95
2019-06-26T02:01:49.277Z,65.85
2019-06-26T02:02:59.453Z,65.85
2019-06-26T02:04:09.856Z,66.05
2019-06-26T02:05:23.622Z,65.75
2019-06-26T02:06:33.744Z,65.37
2019-06-26T02:07:43.884Z,65.47
2019-06-26T02:08:54.266Z,65.66
2019-06-26T02:10:04.394Z,65.27
2019-06-26T02:11:14.561Z,65.08
2019-06-26T02:12:24.699Z,64.89
2019-06-26T02:13:35.072Z,64.59
2019-06-26T02:14:45.210Z,64.79
2019-06-26T02:15:55.407Z,64.5
2019-06-26T02:17:05.535Z,64.2
2019-06-26T02:18:15.646Z,64.69
2019-06-26T02:19:25.754Z,64.4
2019-06-26T02:20:35.890Z,64.5
2019-06-26T02:21:46.024Z,63.82
2019-06-26T02:22:56.256Z,64.69
2019-06-26T02:24:06.112Z,65.08
2019-06-26T02:25:16.229Z,64.69
2019-06-26T02:26:26.429Z,64.89
2019-06-26T02:27:36.619Z,64.98
2019-06-26T02:28:46.755Z,65.08
2019-06-26T02:29:56.907Z,65.47
2019-06-26T02:31:07.033Z,65.66
2019-06-26T02:32:17.212Z,65.66
2019-06-26T02:33:27.237Z,65.27
2019-06-26T02:34:37.120Z,65.27
2019-06-26T02:35:47.247Z,65.75
2019-06-26T02:36:57.409Z,65.56
2019-06-26T02:38:07.563Z,66.14
2019-06-26T02:39:17.681Z,65.37
2019-06-26T02:40:27.814Z,65.95
2019-06-26T02:41:37.964Z,66.05
2019-06-26T02:42:47.845Z,65.47
2019-06-26T02:43:58.770Z,65.56
2019-06-26T02:45:08.925Z,65.56
2019-06-26T02:46:19.047Z,65.27
2019-06-26T02:47:31.303Z,65.47
2019-06-26T02:48:41.437Z,65.56
2019-06-26T02:49:51.595Z,65.66
2019-06-26T02:51:01.742Z,66.24
2019-06-26T02:52:11.894Z,65.27
2019-06-26T02:53:22.012Z,65.66
2019-06-26T02:54:32.163Z,65.95
2019-06-26T02:55:42.276Z,66.63
2019-06-26T02:56:52.810Z,66.4
2019-06-26T02:58:02.952Z,65.82
2019-06-26T02:59:13.084Z,65.72
2019-06-26T03:00:23.220Z,66.3
2019-06-26T03:01:33.179Z,66.02
2019-06-26T03:02:43.378Z,66.3
2019-06-26T03:03:53.543Z,66.5
2019-06-26T03:05:03.687Z,66.24
2019-06-26T03:06:13.848Z,67.08
2019-06-26T03:07:23.606Z,66.69
2019-06-26T03:08:33.415Z,66.6
2019-06-26T03:09:43.298Z,66.78
2019-06-26T03:10:53.436Z,66.69
2019-06-26T03:12:03.577Z,66.78
2019-06-26T03:13:13.789Z,67.18
2019-06-26T03:14:23.904Z,66.78
2019-06-26T03:15:34.029Z,66.69
2019-06-26T03:16:44.142Z,66.69
2019-06-26T03:17:58.293Z,66.78
2019-06-26T03:19:09.579Z,66.5
2019-06-26T03:20:19.727Z,66.69
2019-06-26T03:21:29.834Z,66.6
2019-06-26T03:22:39.987Z,66.69
2019-06-26T03:23:50.165Z,66.78
2019-06-26T03:25:00.271Z,66.5
2019-06-26T03:26:10.386Z,66.6
2019-06-26T03:27:20.698Z,66.6
2019-06-26T03:28:30.583Z,67.18
2019-06-26T03:29:40.693Z,67.27
2019-06-26T03:30:50.826Z,66.98
2019-06-26T03:32:01.025Z,66.98
2019-06-26T03:33:11.215Z,67.18
2019-06-26T03:34:21.345Z,67.27
2019-06-26T03:35:31.522Z,67.46
2019-06-26T03:36:43.910Z,67.37
2019-06-26T03:37:54.033Z,67.66
2019-06-26T03:39:03.965Z,67.08
2019-06-26T03:40:14.085Z,67.85
2019-06-26T03:41:24.199Z,67.37
2019-06-26T03:42:34.068Z,67.56
2019-06-26T03:43:44.265Z,67.66
2019-06-26T03:44:54.444Z,67.37
2019-06-26T03:46:04.841Z,67.76
2019-06-26T03:47:14.995Z,67.4
2019-06-26T03:48:25.131Z,67.56
2019-06-26T03:49:35.247Z,67.3
2019-06-26T03:50:45.420Z,67.3
2019-06-26T03:51:55.578Z,67.69
2019-06-26T03:53:05.529Z,66.92
2019-06-26T03:54:15.295Z,66.92
2019-06-26T03:55:25.418Z,66.82
2019-06-26T03:56:35.271Z,66.72
2019-06-26T03:57:45.405Z,66.34
2019-06-26T03:58:55.673Z,66.72
2019-06-26T04:00:05.825Z,66.24
2019-06-26T04:01:16.014Z,66.05
2019-06-26T04:02:26.264Z,66.43
2019-06-26T04:03:36.404Z,66.53
2019-06-26T04:04:46.513Z,66.14
2019-06-26T04:05:56.643Z,66.05
2019-06-26T04:07:06.755Z,66.05
2019-06-26T04:08:16.871Z,66.05
2019-06-26T04:09:26.989Z,66.14
2019-06-26T04:10:37.133Z,66.14
2019-06-26T04:11:51.083Z,65.85
2019-06-26T04:13:01.246Z,65.85
2019-06-26T04:14:11.363Z,65.56
2019-06-26T04:15:21.456Z,65.89
2019-06-26T04:16:46.787Z,65.4
2019-06-26T04:17:56.917Z,65.75
2019-06-26T04:19:07.073Z,65.79
2019-06-26T04:20:17.245Z,65.89
2019-06-26T04:21:27.364Z,65.89
2019-06-26T04:22:37.484Z,65.89
2019-06-26T04:23:50.566Z,65.89
2019-06-26T04:25:00.688Z,65.5
2019-06-26T04:26:10.542Z,65.5
2019-06-26T04:27:20.672Z,65.3
2019-06-26T04:28:30.794Z,65.11
2019-06-26T04:29:40.914Z,65.3
2019-06-26T04:30:51.041Z,64.92
2019-06-26T04:32:01.152Z,64.82
2019-06-26T04:33:11.266Z,64.92
2019-06-26T04:34:21.377Z,64.82
2019-06-26T04:35:31.496Z,65.2
2019-06-26T04:36:41.341Z,64.92
2019-06-26T04:37:51.489Z,64.82
2019-06-26T04:39:01.715Z,64.82
2019-06-26T04:40:11.881Z,65.2
2019-06-26T04:41:25.692Z,65.2
2019-06-26T04:42:35.861Z,65.2
2019-06-26T04:43:46.033Z,64.92
2019-06-26T04:44:56.210Z,64.92
2019-06-26T04:46:06.315Z,65.01
2019-06-26T04:47:16.433Z,64.85
2019-06-26T04:48:26.544Z,65.05
2019-06-26T04:49:36.657Z,64.75
2019-06-26T04:50:46.779Z,64.85
2019-06-26T04:51:56.948Z,64.95
2019-06-26T04:53:07.175Z,64.95
2019-06-26T04:54:17.305Z,64.47
2019-06-26T04:55:27.599Z,64.47
2019-06-26T04:56:37.736Z,64.56
2019-06-26T04:57:48.026Z,64.56
2019-06-26T04:58:58.141Z,64.47
2019-06-26T05:00:08.278Z,64.78
2019-06-26T05:01:18.160Z,64.4
2019-06-26T05:02:28.296Z,64.5
2019-06-26T05:03:38.585Z,64.59
2019-06-26T05:04:48.761Z,64.4
2019-06-26T05:05:58.882Z,64.4
2019-06-26T05:07:09.004Z,64.01
2019-06-26T05:08:19.313Z,64.01
2019-06-26T05:09:29.429Z,63.82
2019-06-26T05:10:39.601Z,63.82
2019-06-26T05:11:49.460Z,64.01
2019-06-26T05:12:59.575Z,64.11
2019-06-26T05:14:09.702Z,64.04
2019-06-26T05:15:19.851Z,64.23
2019-06-26T05:16:30.023Z,64.04
2019-06-26T05:17:40.189Z,63.85
2019-06-26T05:18:50.323Z,64.04
2019-06-26T05:20:00.448Z,63.36
2019-06-26T05:21:10.848Z,63.39
2019-06-26T05:22:21.091Z,63.46
2019-06-26T05:23:31.212Z,63.59
2019-06-26T05:24:41.355Z,63.68
2019-06-26T05:25:54.311Z,63.59
2019-06-26T05:27:04.438Z,63.68
2019-06-26T05:28:14.556Z,63.1
2019-06-26T05:29:24.510Z,63.1
2019-06-26T05:30:34.756Z,63.1
2019-06-26T05:31:45.047Z,63.29
2019-06-26T05:32:55.260Z,63.39
2019-06-26T05:34:05.385Z,63.1
2019-06-26T05:35:18.832Z,63.01
2019-06-26T05:36:28.947Z,63.1
2019-06-26T05:37:39.129Z,63.23
2019-06-26T05:38:49.247Z,63.32
2019-06-26T05:39:46.903Z,63.23
2019-06-26T05:41:00.174Z,63.32
2019-06-26T05:42:10.328Z,63.23
2019-06-26T05:43:20.291Z,63.13
2019-06-26T05:44:30.406Z,63.42
2019-06-26T05:45:40.532Z,63.26
2019-06-26T05:46:50.536Z,63.55
2019-06-26T05:48:00.428Z,63.55
2019-06-26T05:49:10.842Z,63.17
2019-06-26T05:50:20.951Z,63.26
2019-06-26T05:51:31.089Z,63.45
2019-06-26T05:52:44.870Z,63.36
2019-06-26T05:53:55.080Z,63.55
2019-06-26T05:55:05.204Z,63.36
2019-06-26T05:56:15.367Z,63.2
2019-06-26T05:57:25.531Z,63.2
2019-06-26T05:58:35.634Z,63.2
2019-06-26T05:59:45.802Z,63.2
2019-06-26T06:00:55.984Z,63.1
2019-06-26T06:02:06.181Z,63.1
2019-06-26T06:03:16.309Z,63.1
2019-06-26T06:04:26.212Z,63.42
2019-06-26T06:05:36.331Z,63.52
2019-06-26T06:06:46.281Z,63.03
2019-06-26T06:07:56.449Z,63.03
2019-06-26T06:09:06.570Z,63.13
2019-06-26T06:10:16.725Z,63.52
2019-06-26T06:11:26.848Z,63.03
2019-06-26T06:12:36.978Z,62.93
2019-06-26T06:13:47.077Z,63.13
2019-06-26T06:14:57.212Z,63.26
2019-06-26T06:16:09.057Z,62.87
2019-06-26T06:17:19.270Z,62.87
2019-06-26T06:18:32.609Z,62.96
2019-06-26T06:20:59.947Z,62.77
2019-06-26T06:23:25.022Z,62.48
2019-06-26T06:24:35.160Z,62.41
2019-06-26T06:27:00.118Z,62.41
2019-06-26T06:28:11.655Z,62.41
2019-06-26T06:30:37.900Z,62.32
2019-06-26T06:31:48.063Z,62.41
2019-06-26T06:32:58.257Z,62.41
2019-06-26T06:34:08.379Z,62.22
2019-06-26T06:35:18.531Z,62.15
2019-06-26T06:36:28.648Z,62.15
2019-06-26T06:37:38.407Z,61.86
2019-06-26T06:38:48.578Z,61.76
2019-06-26T06:39:58.866Z,62.15
2019-06-26T06:41:08.999Z,61.96
2019-06-26T06:42:19.107Z,61.76
2019-06-26T06:43:29.243Z,61.86
2019-06-26T06:44:39.535Z,62.05
2019-06-26T06:45:49.755Z,62.05
2019-06-26T06:47:08.854Z,61.69
2019-06-26T06:48:19.203Z,61.99
2019-06-26T06:49:29.315Z,62.18
2019-06-26T06:50:39.439Z,61.89
2019-06-26T06:51:49.578Z,61.99
2019-06-26T06:52:59.750Z,61.99
2019-06-26T06:54:09.872Z,62.08
2019-06-26T06:55:20.029Z,62.28
2019-06-26T06:56:30.199Z,61.6
2019-06-26T06:57:40.325Z,61.79
2019-06-26T06:58:50.477Z,61.89
2019-06-26T07:00:00.913Z,61.89
2019-06-26T07:01:11.074Z,61.69
2019-06-26T07:02:21.230Z,61.53
2019-06-26T07:03:31.407Z,61.53
2019-06-26T07:04:41.571Z,61.82
2019-06-26T07:05:51.430Z,61.63
2019-06-26T07:07:01.559Z,60.94
2019-06-26T07:08:11.659Z,60.94
2019-06-26T07:09:21.776Z,60.26
2019-06-26T07:10:31.905Z,60.46
2019-06-26T07:11:42.007Z,60.16
2019-06-26T07:12:52.178Z,60.16
2019-06-26T07:14:02.411Z,60.75
2019-06-26T07:15:12.565Z,60.65
2019-06-26T07:16:22.713Z,60.55
2019-06-26T07:17:32.878Z,60.49
2019-06-26T07:18:43.064Z,60.26
2019-06-26T07:19:53.348Z,60.19
2019-06-26T07:21:03.476Z,60
2019-06-26T07:22:13.599Z,59.51
2019-06-26T07:23:23.761Z,59.31
2019-06-26T07:24:33.959Z,59.61
2019-06-26T07:25:44.081Z,59.31
2019-06-26T07:26:54.181Z,59.31
2019-06-26T07:28:04.844Z,59.22
2019-06-26T07:29:15.148Z,58.63
2019-06-26T07:30:25.298Z,59.54
2019-06-26T07:31:38.330Z,59.22
2019-06-26T07:32:48.882Z,59.41
2019-06-26T07:33:59.045Z,58.86
2019-06-26T07:35:09.182Z,59.15
2019-06-26T07:36:19.413Z,59.05
2019-06-26T07:37:29.551Z,58.86
2019-06-26T07:38:39.685Z,58.66
2019-06-26T07:39:49.807Z,58.76
2019-06-26T07:41:05.990Z,58.66
2019-06-26T07:42:16.142Z,58.37
2019-06-26T07:43:26.368Z,59.05
2019-06-26T07:44:36.507Z,58.69
2019-06-26T07:45:46.453Z,58.79
2019-06-26T07:46:56.596Z,58.98
2019-06-26T07:48:06.776Z,58.89
2019-06-26T07:49:16.928Z,58.98
2019-06-26T07:50:27.071Z,58.5
2019-06-26T07:51:40.253Z,58.3
2019-06-26T07:52:50.365Z,58.2
2019-06-26T07:54:00.630Z,58.3
2019-06-26T07:55:14.245Z,58.13
2019-06-26T07:56:24.417Z,58.13
2019-06-26T07:57:34.688Z,58.23
2019-06-26T07:58:44.850Z,58.23
2019-06-26T07:59:54.962Z,57.93
2019-06-26T08:01:05.288Z,58.62
2019-06-26T08:02:15.419Z,58.23
2019-06-26T08:03:25.577Z,58.16
2019-06-26T08:04:35.717Z,57.97
2019-06-26T08:05:46.005Z,57.87
2019-06-26T08:06:56.171Z,57.57
2019-06-26T08:08:06.436Z,57.67
2019-06-26T08:09:20.131Z,57.48
2019-06-26T08:10:30.011Z,56.99
2019-06-26T08:11:39.989Z,57.11
2019-06-26T08:12:50.122Z,57.01
2019-06-26T08:14:00.307Z,57.18
2019-06-26T08:15:10.580Z,57.01
2019-06-26T08:16:20.762Z,56.33
2019-06-26T08:17:30.760Z,56.43
2019-06-26T08:18:40.940Z,56.33
2019-06-26T08:19:51.127Z,56.43
2019-06-26T08:21:14.335Z,56.43
2019-06-26T08:22:24.476Z,56.16
2019-06-26T08:23:34.467Z,56.33
2019-06-26T08:24:44.597Z,56.36
2019-06-26T08:25:54.749Z,56.06
2019-06-26T08:27:04.951Z,56.06
2019-06-26T08:28:18.403Z,56.16
2019-06-26T08:29:28.579Z,55.57
2019-06-26T08:30:38.463Z,55.38
2019-06-26T08:31:48.592Z,54.33
2019-06-26T08:32:58.740Z,54.43
2019-06-26T08:34:08.939Z,54.03
2019-06-26T08:35:19.053Z,54.13
2019-06-26T08:36:29.186Z,54.23
2019-06-26T08:37:39.339Z,54.33
2019-06-26T08:38:49.472Z,54.52
2019-06-26T08:39:59.601Z,54.75
2019-06-26T08:41:09.745Z,54.46
2019-06-26T08:42:19.986Z,54.25
2019-06-26T08:43:33.288Z,54.09
2019-06-26T08:44:43.399Z,53.69
2019-06-26T08:45:53.531Z,53.69
2019-06-26T08:47:03.727Z,52.72
2019-06-26T08:48:38.658Z,51.27
2019-06-26T08:49:49.496Z,51.17
2019-06-26T08:50:59.599Z,50.98
2019-06-26T08:52:09.830Z,50.78
2019-06-26T08:53:19.730Z,50.42
2019-06-26T08:54:30.081Z,50.22
2019-06-26T08:55:40.305Z,50.02
2019-06-26T08:56:50.427Z,49.95
2019-06-26T08:58:00.676Z,49.26
2019-06-26T08:59:10.916Z,50.16
2019-06-26T09:00:21.060Z,49.38
2019-06-26T09:01:31.201Z,48.91
2019-06-26T09:02:41.333Z,48.65
2019-06-26T09:03:51.465Z,48.3
2019-06-26T09:05:01.638Z,47.73
2019-06-26T09:06:11.762Z,46.59
2019-06-26T09:07:21.907Z,43.88
2019-06-26T09:08:32.330Z,42.83
2019-06-26T09:09:42.484Z,42.36
2019-06-26T09:10:52.629Z,41.79
2019-06-26T09:12:02.974Z,41.22
2019-06-26T09:13:13.097Z,41.04
2019-06-26T09:14:23.229Z,39.75
2019-06-26T09:15:33.437Z,38.68
2019-06-26T09:16:46.082Z,37.99
2019-06-26T09:17:55.983Z,38.59
2019-06-26T09:19:06.196Z,37.62
2019-06-26T09:20:16.338Z,37.32
2019-06-26T09:21:26.474Z,37.22
2019-06-26T09:22:39.267Z,37.62
2019-06-26T09:23:49.488Z,37.62
2019-06-26T09:24:59.622Z,37.41
2019-06-26T09:26:28.958Z,36.92
2019-06-26T09:30:04.705Z,36.74
2019-06-26T09:31:15.237Z,37.04
2019-06-26T09:33:40.809Z,36.56
2019-06-26T09:34:53.990Z,35.97
2019-06-26T09:36:06.797Z,36.46
2019-06-26T09:37:17.144Z,35.86
2019-06-26T09:38:27.288Z,36.18
2019-06-26T09:39:38.816Z,36.08
2019-06-26T09:40:52.408Z,35.39
2019-06-26T09:43:20.624Z,36.18
2019-06-26T09:44:32.657Z,35.71
2019-06-26T09:45:43.026Z,35.92
2019-06-26T09:46:53.192Z,35.22
2019-06-26T09:48:03.444Z,35.24
2019-06-26T09:49:13.697Z,34.15
2019-06-26T09:50:23.835Z,34.34
2019-06-26T09:52:47.948Z,34.34
2019-06-26T09:55:09.489Z,33.97
2019-06-26T09:56:19.744Z,33.76
2019-06-26T09:58:45.431Z,32.97
2019-06-26T09:59:55.599Z,33.67
2019-06-26T10:01:05.798Z,33.17
2019-06-26T10:02:16.163Z,33.25
2019-06-26T10:03:26.355Z,33.25
2019-06-26T10:04:38.897Z,33.17
2019-06-26T10:05:49.049Z,33.27
2019-06-26T10:06:59.798Z,33.36
2019-06-26T10:08:10.264Z,33.65
2019-06-26T10:09:20.454Z,33.85
2019-06-26T10:10:30.653Z,33.95
2019-06-26T10:11:40.800Z,33.36
2019-06-26T10:12:50.946Z,33.27
2019-06-26T10:14:01.085Z,33.37
2019-06-26T10:15:11.247Z,32.48
2019-06-26T10:16:21.406Z,32.28
2019-06-26T10:17:32.359Z,32.97
2019-06-26T10:18:42.753Z,32.96
2019-06-26T10:19:56.532Z,32.36
2019-06-26T10:21:06.898Z,32.56
2019-06-26T10:22:17.047Z,32.76
2019-06-26T10:26:00.351Z,33.85
2019-06-26T10:27:10.518Z,33.85
2019-06-26T10:28:20.737Z,33.45
2019-06-26T10:29:32.379Z,33.85
2019-06-26T10:30:43.179Z,34.15
2019-06-26T10:31:53.410Z,34.05
2019-06-26T10:33:03.612Z,33.25
2019-06-26T10:34:13.760Z,33.97
2019-06-26T10:35:23.900Z,33.97
2019-06-26T10:37:52.596Z,33.69
2019-06-26T10:39:03.542Z,33.18
2019-06-26T10:40:16.302Z,33.39
2019-06-26T10:41:26.159Z,33.48
2019-06-26T10:42:36.307Z,33.39
2019-06-26T10:43:46.459Z,33.27
2019-06-26T10:45:28.897Z,33.98
2019-06-26T10:46:42.238Z,33.37
2019-06-26T10:49:08.366Z,33.17
2019-06-26T10:50:34.282Z,33.75
2019-06-26T10:52:03.546Z,33.55
2019-06-26T10:53:14.685Z,33.37
2019-06-26T10:54:24.870Z,33.06
2019-06-26T10:55:35.012Z,33.95
2019-06-26T10:56:45.192Z,33.45
2019-06-26T10:57:55.356Z,32.96
2019-06-26T10:59:05.737Z,32.84
2019-06-26T11:00:15.880Z,32.84
2019-06-26T11:01:26.086Z,33.04
2019-06-26T11:02:36.233Z,32.96
2019-06-26T11:03:46.409Z,33.45
2019-06-26T11:04:56.579Z,33.76
2019-06-26T11:06:06.740Z,33.67
2019-06-26T11:07:16.943Z,33.87
2019-06-26T11:08:27.090Z,33.67
2019-06-26T11:09:37.235Z,33.57
2019-06-26T11:10:47.380Z,33.47
2019-06-26T11:11:57.738Z,33.97
2019-06-26T11:13:08.148Z,33.47
2019-06-26T11:14:18.059Z,33.17
2019-06-26T11:15:28.256Z,33.27
2019-06-26T11:16:38.612Z,33.17
2019-06-26T11:17:48.770Z,33.07
2019-06-26T11:18:58.971Z,33.37
2019-06-26T11:20:09.152Z,33.57
2019-06-26T11:21:19.339Z,33.65
2019-06-26T11:22:29.512Z,33.75
2019-06-26T11:23:39.717Z,33.95
2019-06-26T11:24:50.009Z,34.34
2019-06-26T11:26:00.005Z,34.34
2019-06-26T11:27:10.165Z,34.34
2019-06-26T11:28:20.328Z,34.45
2019-06-26T11:29:30.506Z,34.05
2019-06-26T11:30:40.643Z,33.95
2019-06-26T11:31:50.809Z,34.05
2019-06-26T11:33:01.037Z,34.23
2019-06-26T11:34:11.273Z,34.23
2019-06-26T11:35:21.700Z,34.13
2019-06-26T11:36:31.989Z,33.95
2019-06-26T11:37:42.166Z,33.55
2019-06-26T11:38:52.056Z,33.85
2019-06-26T11:40:02.292Z,34.15
2019-06-26T11:41:12.486Z,33.95
2019-06-26T11:42:22.706Z,33.15
2019-06-26T11:43:35.790Z,33.65
2019-06-26T11:44:45.953Z,33.64
2019-06-26T11:45:56.158Z,34.03
2019-06-26T11:47:06.322Z,34.13
2019-06-26T11:48:16.221Z,34.53
2019-06-26T11:49:26.430Z,34.23
2019-06-26T11:50:36.560Z,33.44
2019-06-26T11:51:46.706Z,33.64
2019-06-26T11:52:57.187Z,34.03
2019-06-26T11:54:07.406Z,35.01
2019-06-26T11:55:17.557Z,35.41
2019-06-26T11:56:27.512Z,36.18
2019-06-26T11:57:37.925Z,36.46
2019-06-26T11:58:48.086Z,36.44
2019-06-26T11:59:58.242Z,36.24
2019-06-26T12:01:08.691Z,36.8
2019-06-26T12:02:18.886Z,36.98
2019-06-26T12:03:29.061Z,36.39
2019-06-26T12:04:39.219Z,36.59
2019-06-26T12:05:49.085Z,36.69
2019-06-26T12:07:21.855Z,36.69
2019-06-26T12:08:31.999Z,36.59
2019-06-26T12:09:42.598Z,36.41
2019-06-26T12:10:52.948Z,36.43
2019-06-26T12:12:03.140Z,36.52
2019-06-26T12:13:13.279Z,36.72
2019-06-26T12:14:23.445Z,36.92
2019-06-26T12:15:33.837Z,37.02
2019-06-26T12:16:44.039Z,37.02
2019-06-26T12:17:54.394Z,37.12
2019-06-26T12:19:04.548Z,37.13
2019-06-26T12:20:21.364Z,37.13
2019-06-26T12:21:31.865Z,36.74
2019-06-26T12:22:42.062Z,36.84
2019-06-26T12:23:52.220Z,36.86
2019-06-26T12:25:02.385Z,36.96
2019-06-26T12:26:12.552Z,36.94
2019-06-26T12:27:22.750Z,37.22
2019-06-26T12:28:32.901Z,37.32
2019-06-26T12:29:43.048Z,37
2019-06-26T12:30:53.189Z,37.2
2019-06-26T12:32:03.351Z,37.08
2019-06-26T12:33:13.526Z,36.98
2019-06-26T12:34:23.677Z,36.29
2019-06-26T12:35:33.574Z,35.89
2019-06-26T12:36:43.476Z,36.08
2019-06-26T12:37:53.430Z,36.67
2019-06-26T12:39:03.885Z,36.95
2019-06-26T12:40:14.113Z,37.56
2019-06-26T12:41:24.318Z,38.04
2019-06-26T12:42:34.502Z,38.33
2019-06-26T12:43:44.690Z,38.13
2019-06-26T12:44:54.852Z,38.82
2019-06-26T12:46:04.988Z,38.92
2019-06-26T12:47:14.923Z,39.32
2019-06-26T12:48:25.086Z,38.82
2019-06-26T12:49:35.292Z,39.3
2019-06-26T12:50:45.427Z,39.22
2019-06-26T12:51:55.617Z,39.4
2019-06-26T12:53:05.789Z,39.52
2019-06-26T12:54:15.931Z,39.4
2019-06-26T12:55:26.185Z,39.2
2019-06-26T12:56:40.673Z,39.11
2019-06-26T12:57:50.841Z,39.5
2019-06-26T12:59:22.951Z,40.09
2019-06-26T13:00:33.311Z,40.58
2019-06-26T13:01:43.483Z,39.89
2019-06-26T13:02:53.659Z,39.5
2019-06-26T13:04:03.902Z,40.29
2019-06-26T13:05:14.117Z,40.27
2019-06-26T13:06:24.322Z,40.56
2019-06-26T13:07:34.128Z,40.37
2019-06-26T13:08:44.354Z,40.37
2019-06-26T13:09:54.500Z,40.25
2019-06-26T13:11:05.214Z,40.35
2019-06-26T13:12:15.473Z,40.35
2019-06-26T13:13:25.767Z,40.64
2019-06-26T13:14:35.930Z,40.64
2019-06-26T13:15:46.078Z,40.64
2019-06-26T13:16:58.864Z,40.25
2019-06-26T13:18:09.033Z,40.74
2019-06-26T13:19:19.348Z,40.55
2019-06-26T13:20:29.577Z,40.45
2019-06-26T13:21:57.112Z,39.46
2019-06-26T13:23:07.315Z,38.87
2019-06-26T13:24:20.323Z,38.96
2019-06-26T13:25:30.509Z,38.77
2019-06-26T13:26:40.150Z,38.37
2019-06-26T13:27:50.688Z,37.88
2019-06-26T13:29:00.832Z,37.29
2019-06-26T13:30:14.721Z,37.88
2019-06-26T13:31:25.092Z,38.08
2019-06-26T13:32:35.226Z,38.16
2019-06-26T13:33:45.422Z,38.56
2019-06-26T13:34:55.602Z,38.35
2019-06-26T13:36:05.848Z,38.85
2019-06-26T13:37:16.045Z,39.15
2019-06-26T13:38:29.553Z,39.54
2019-06-26T13:39:39.711Z,40.03
2019-06-26T13:40:49.848Z,40.13
2019-06-26T13:42:00.014Z,40.11
2019-06-26T13:43:09.986Z,40.41
2019-06-26T13:44:20.199Z,39.92
2019-06-26T13:45:30.372Z,40.11
2019-06-26T13:46:40.283Z,40.01
2019-06-26T13:47:50.454Z,40.11
2019-06-26T13:49:00.615Z,40.11
2019-06-26T13:50:10.801Z,40.21
2019-06-26T13:51:23.938Z,40.11
2019-06-26T13:52:34.077Z,40.11
2019-06-26T13:53:44.277Z,40.51
2019-06-26T13:54:57.191Z,40.31
2019-06-26T13:56:07.515Z,40.31
2019-06-26T13:57:18.509Z,40.31
2019-06-26T13:58:28.739Z,39.42
2019-06-26T13:59:38.885Z,40.01
2019-06-26T14:00:49.066Z,40.01
2019-06-26T14:01:59.319Z,40.41
2019-06-26T14:03:09.493Z,40.41
2019-06-26T14:04:19.671Z,40.21
2019-06-26T14:05:32.091Z,40.31
2019-06-26T14:06:42.227Z,40.31
2019-06-26T14:07:52.387Z,40.31
2019-06-26T14:09:02.584Z,40.01
2019-06-26T14:10:12.781Z,40.41
2019-06-26T14:11:22.946Z,40.21
2019-06-26T14:12:32.881Z,40.21
2019-06-26T14:13:44.479Z,40.11
2019-06-26T14:15:00.109Z,39.52
2019-06-26T14:16:10.318Z,39.52
2019-06-26T14:17:20.622Z,39.4
2019-06-26T14:18:32.927Z,39.5
2019-06-26T14:19:43.091Z,40.09
2019-06-26T14:20:53.286Z,39.79
2019-06-26T14:22:03.554Z,40.29
2019-06-26T14:23:16.158Z,40
2019-06-26T14:24:26.371Z,40
2019-06-26T14:25:36.544Z,40.39
2019-06-26T14:26:46.718Z,40.29
2019-06-26T14:27:56.846Z,40.37
2019-06-26T14:29:22.422Z,40.48
2019-06-26T14:30:32.764Z,40.27
2019-06-26T14:31:42.911Z,40.09
2019-06-26T14:32:53.183Z,39.97
2019-06-26T14:34:03.372Z,40.29
2019-06-26T14:35:13.501Z,39.5
2019-06-26T14:36:25.942Z,39.5
2019-06-26T14:37:36.131Z,39.39
2019-06-26T14:38:46.287Z,39.6
2019-06-26T14:39:56.461Z,39.5
2019-06-26T14:41:06.626Z,39.39
2019-06-26T14:42:16.822Z,39.48
2019-06-26T14:43:26.882Z,39.28
2019-06-26T14:44:37.041Z,39.39
2019-06-26T14:45:47.194Z,39.48
2019-06-26T14:46:57.337Z,39.48
2019-06-26T14:48:07.583Z,39.48
2019-06-26T14:49:17.831Z,39.48
2019-06-26T14:50:28.262Z,39.39
2019-06-26T14:51:49.108Z,39.78
2019-06-26T14:52:59.277Z,39.09
2019-06-26T14:54:09.404Z,39.09
2019-06-26T14:55:19.612Z,38.89
2019-06-26T14:56:29.766Z,39.47
2019-06-26T14:57:39.906Z,39.47
2019-06-26T14:58:49.846Z,39.18
2019-06-26T15:00:00.001Z,39.09
2019-06-26T15:01:10.009Z,38.7
2019-06-26T15:02:20.179Z,38.7
2019-06-26T15:03:30.360Z,37.99
2019-06-26T15:04:40.511Z,38.48
2019-06-26T15:05:54.048Z,37.59
2019-06-26T15:07:20.792Z,37.69
2019-06-26T15:08:30.931Z,36.8
2019-06-26T15:09:41.116Z,36.9
2019-06-26T15:10:51.278Z,37.01
2019-06-26T15:12:01.457Z,36.9
2019-06-26T15:13:11.610Z,37.01
2019-06-26T15:14:21.940Z,37.2
2019-06-26T15:15:32.149Z,37.4
2019-06-26T15:16:42.298Z,37.59
2019-06-26T15:17:52.467Z,38.18
2019-06-26T15:19:02.695Z,38.09
2019-06-26T15:20:12.869Z,37.99
2019-06-26T15:21:23.011Z,38.48
2019-06-26T15:22:33.159Z,37.89
2019-06-26T15:23:43.410Z,38.09
2019-06-26T15:24:53.563Z,37.99
2019-06-26T15:26:03.711Z,37.1
2019-06-26T15:27:13.872Z,37.18
2019-06-26T15:28:24.039Z,36.88
2019-06-26T15:29:34.185Z,36.9
2019-06-26T15:30:44.428Z,37.1
2019-06-26T15:31:54.401Z,37.01
2019-06-26T15:33:04.561Z,36.61